sensor_id;sensor_type;location;lat;lon;timestamp;pressure;altitude;pressure_sealevel;temperature;humidity
75656;BME280;64252;51.094;13.714;2023-03-07T00:00:46;99061.34;;;0.17;100.00
75656;BME280;64252;51.094;13.714;2023-03-07T00:03:13;99059.81;;;0.19;100.00
75656;BME280;64252;51.094;13.714;2023-03-07T00:05:39;99062.22;;;0.33;100.00
75656;BME280;64252;51.094;13.714;2023-03-07T00:08:04;99060.34;;;0.37;100.00
75656;BME280;64252;51.094;13.714;2023-03-07T00:10:30;99054.78;;;0.37;100.00
75656;BME280;64252;51.094;13.714;2023-03-07T00:12:56;99049.22;;;0.37;100.00
75656;BME280;64252;51.094;13.714;2023-03-07T00:15:22;99063.56;;;0.39;100.00
75656;BME280;64252;51.094;13.714;2023-03-07T00:17:47;99055.22;;;0.39;100.00
75656;BME280;64252;51.094;13.714;2023-03-07T00:20:13;99053.81;;;0.45;99.04
75656;BME280;64252;51.094;13.714;2023-03-07T00:22:40;99044.50;;;0.37;100.00
75656;BME280;64252;51.094;13.714;2023-03-07T00:25:06;99053.97;;;0.36;100.00
75656;BME280;64252;51.094;13.714;2023-03-07T00:27:32;99046.72;;;0.32;100.00
75656;BME280;64252;51.094;13.714;2023-03-07T00:29:58;99047.88;;;0.31;100.00
75656;BME280;64252;51.094;13.714;2023-03-07T00:32:24;99044.28;;;0.30;100.00
75656;BME280;64252;51.094;13.714;2023-03-07T00:34:50;99041.59;;;0.34;100.00
75656;BME280;64252;51.094;13.714;2023-03-07T00:37:16;99038.31;;;0.44;100.00
75656;BME280;64252;51.094;13.714;2023-03-07T00:39:41;99036.50;;;0.36;100.00
75656;BME280;64252;51.094;13.714;2023-03-07T00:42:10;99033.97;;;0.31;100.00
75656;BME280;64252;51.094;13.714;2023-03-07T00:44:36;99028.44;;;0.31;100.00
75656;BME280;64252;51.094;13.714;2023-03-07T00:47:02;99026.81;;;0.30;100.00
75656;BME280;64252;51.094;13.714;2023-03-07T00:49:27;99028.19;;;0.36;99.55
75656;BME280;64252;51.094;13.714;2023-03-07T00:51:53;99016.25;;;0.35;99.56
75656;BME280;64252;51.094;13.714;2023-03-07T00:54:19;99015.91;;;0.37;99.73
75656;BME280;64252;51.094;13.714;2023-03-07T00:56:44;99008.75;;;0.36;100.00
75656;BME280;64252;51.094;13.714;2023-03-07T00:59:10;99009.09;;;0.34;99.92
75656;BME280;64252;51.094;13.714;2023-03-07T01:01:36;99002.28;;;0.32;99.92
75656;BME280;64252;51.094;13.714;2023-03-07T01:04:03;99003.69;;;0.26;100.00
75656;BME280;64252;51.094;13.714;2023-03-07T01:06:30;99000.47;;;0.24;100.00
75656;BME280;64252;51.094;13.714;2023-03-07T01:09:05;98999.41;;;0.28;99.41
75656;BME280;64252;51.094;13.714;2023-03-07T01:11:34;98998.25;;;0.29;99.84
75656;BME280;64252;51.094;13.714;2023-03-07T01:14:02;98998.16;;;0.26;99.57
75656;BME280;64252;51.094;13.714;2023-03-07T01:16:36;98988.47;;;0.20;99.58
75656;BME280;64252;51.094;13.714;2023-03-07T01:19:05;98991.50;;;0.15;99.73
75656;BME280;64252;51.094;13.714;2023-03-07T01:21:34;98982.72;;;0.13;99.99
75656;BME280;64252;51.094;13.714;2023-03-07T01:24:03;98978.88;;;0.17;99.38
75656;BME280;64252;51.094;13.714;2023-03-07T01:26:30;98976.75;;;0.26;99.05
75656;BME280;64252;51.094;13.714;2023-03-07T01:29:00;98978.47;;;0.31;99.09
75656;BME280;64252;51.094;13.714;2023-03-07T01:31:27;98960.66;;;0.32;99.06
75656;BME280;64252;51.094;13.714;2023-03-07T01:33:56;98959.50;;;0.33;98.74
75656;BME280;64252;51.094;13.714;2023-03-07T01:36:26;98959.50;;;0.33;98.59
75656;BME280;64252;51.094;13.714;2023-03-07T01:42:01;98951.59;;;0.35;98.33
75656;BME280;64252;51.094;13.714;2023-03-07T01:44:28;98942.91;;;0.36;98.64
75656;BME280;64252;51.094;13.714;2023-03-07T01:46:58;98931.91;;;0.40;98.29
75656;BME280;64252;51.094;13.714;2023-03-07T01:49:40;98927.97;;;0.41;97.48
75656;BME280;64252;51.094;13.714;2023-03-07T01:52:26;98927.06;;;0.37;97.89
75656;BME280;64252;51.094;13.714;2023-03-07T01:55:17;98920.25;;;0.19;98.15
75656;BME280;64252;51.094;13.714;2023-03-07T01:57:48;98916.63;;;0.03;98.60
75656;BME280;64252;51.094;13.714;2023-03-07T02:00:19;98913.31;;;-0.03;99.97
75656;BME280;64252;51.094;13.714;2023-03-07T02:02:58;98909.34;;;-0.18;99.69
75656;BME280;64252;51.094;13.714;2023-03-07T02:05:31;98910.91;;;-0.32;100.00
75656;BME280;64252;51.094;13.714;2023-03-07T02:08:00;98903.44;;;-0.44;100.00
75656;BME280;64252;51.094;13.714;2023-03-07T02:10:30;98900.72;;;-0.56;100.00
75656;BME280;64252;51.094;13.714;2023-03-07T02:12:57;98903.94;;;-0.54;100.00
75656;BME280;64252;51.094;13.714;2023-03-07T02:15:23;98899.00;;;-0.61;100.00
75656;BME280;64252;51.094;13.714;2023-03-07T02:17:50;98900.28;;;-0.58;100.00
75656;BME280;64252;51.094;13.714;2023-03-07T02:20:47;98900.72;;;-0.56;100.00
75656;BME280;64252;51.094;13.714;2023-03-07T02:23:25;98886.59;;;-0.51;100.00
75656;BME280;64252;51.094;13.714;2023-03-07T02:28:31;98887.13;;;-0.33;100.00
75656;BME280;64252;51.094;13.714;2023-03-07T02:31:01;98892.84;;;-0.26;100.00
75656;BME280;64252;51.094;13.714;2023-03-07T02:33:31;98885.09;;;-0.21;100.00
75656;BME280;64252;51.094;13.714;2023-03-07T02:36:07;98884.50;;;-0.14;100.00
75656;BME280;64252;51.094;13.714;2023-03-07T02:38:38;98875.78;;;-0.13;100.00
75656;BME280;64252;51.094;13.714;2023-03-07T02:41:10;98877.75;;;-0.13;100.00
75656;BME280;64252;51.094;13.714;2023-03-07T02:43:37;98879.94;;;-0.07;100.00
75656;BME280;64252;51.094;13.714;2023-03-07T02:46:03;98866.41;;;-0.08;100.00
75656;BME280;64252;51.094;13.714;2023-03-07T02:48:29;98868.09;;;-0.04;100.00
75656;BME280;64252;51.094;13.714;2023-03-07T02:50:54;98866.59;;;-0.01;100.00
75656;BME280;64252;51.094;13.714;2023-03-07T02:53:20;98858.38;;;0.03;100.00
75656;BME280;64252;51.094;13.714;2023-03-07T02:55:46;98854.69;;;-0.02;100.00
75656;BME280;64252;51.094;13.714;2023-03-07T02:58:11;98853.81;;;-0.06;100.00
75656;BME280;64252;51.094;13.714;2023-03-07T03:00:37;98849.22;;;-0.14;100.00
75656;BME280;64252;51.094;13.714;2023-03-07T03:03:03;98840.00;;;-0.18;100.00
75656;BME280;64252;51.094;13.714;2023-03-07T03:05:29;98831.94;;;-0.23;100.00
75656;BME280;64252;51.094;13.714;2023-03-07T03:07:54;98830.94;;;-0.30;100.00
75656;BME280;64252;51.094;13.714;2023-03-07T03:10:22;98829.25;;;-0.35;100.00
75656;BME280;64252;51.094;13.714;2023-03-07T03:12:48;98820.72;;;-0.42;100.00
75656;BME280;64252;51.094;13.714;2023-03-07T03:15:14;98828.84;;;-0.49;100.00
75656;BME280;64252;51.094;13.714;2023-03-07T03:17:40;98814.19;;;-0.50;100.00
75656;BME280;64252;51.094;13.714;2023-03-07T03:20:06;98809.59;;;-0.58;100.00
75656;BME280;64252;51.094;13.714;2023-03-07T03:22:34;98820.78;;;-0.54;100.00
75656;BME280;64252;51.094;13.714;2023-03-07T03:25:02;98820.56;;;-0.61;100.00
75656;BME280;64252;51.094;13.714;2023-03-07T03:27:31;98810.66;;;-0.62;100.00
75656;BME280;64252;51.094;13.714;2023-03-07T03:29:57;98806.06;;;-0.70;100.00
75656;BME280;64252;51.094;13.714;2023-03-07T03:32:22;98805.63;;;-0.72;100.00
75656;BME280;64252;51.094;13.714;2023-03-07T03:34:48;98797.75;;;-0.70;100.00
75656;BME280;64252;51.094;13.714;2023-03-07T03:37:14;98799.75;;;-0.71;100.00
75656;BME280;64252;51.094;13.714;2023-03-07T03:39:39;98801.88;;;-0.64;100.00
75656;BME280;64252;51.094;13.714;2023-03-07T03:42:05;98799.31;;;-0.57;100.00
75656;BME280;64252;51.094;13.714;2023-03-07T03:44:31;98794.94;;;-0.58;100.00
75656;BME280;64252;51.094;13.714;2023-03-07T03:46:56;98793.78;;;-0.57;100.00
75656;BME280;64252;51.094;13.714;2023-03-07T03:49:23;98791.44;;;-0.55;98.82
75656;BME280;64252;51.094;13.714;2023-03-07T03:51:50;98787.44;;;-0.42;97.61
75656;BME280;64252;51.094;13.714;2023-03-07T03:54:16;98779.31;;;-0.35;97.35
75656;BME280;64252;51.094;13.714;2023-03-07T03:56:42;98780.94;;;-0.34;95.88
75656;BME280;64252;51.094;13.714;2023-03-07T03:59:07;98775.81;;;-0.32;95.51
75656;BME280;64252;51.094;13.714;2023-03-07T04:01:33;98772.25;;;-0.17;95.71
75656;BME280;64252;51.094;13.714;2023-03-07T04:03:59;98769.94;;;-0.15;94.93
75656;BME280;64252;51.094;13.714;2023-03-07T04:06:27;98771.28;;;-0.09;93.40
75656;BME280;64252;51.094;13.714;2023-03-07T04:08:55;98772.88;;;-0.08;92.80
75656;BME280;64252;51.094;13.714;2023-03-07T04:11:22;98766.81;;;0.03;92.37
75656;BME280;64252;51.094;13.714;2023-03-07T04:13:48;98758.94;;;0.05;92.31
75656;BME280;64252;51.094;13.714;2023-03-07T04:16:15;98753.19;;;-0.03;91.20
75656;BME280;64252;51.094;13.714;2023-03-07T04:18:41;98755.44;;;-0.08;90.60
75656;BME280;64252;51.094;13.714;2023-03-07T04:21:08;98744.72;;;-0.10;91.86
75656;BME280;64252;51.094;13.714;2023-03-07T04:23:36;98732.47;;;-0.24;92.41
75656;BME280;64252;51.094;13.714;2023-03-07T04:26:04;98735.84;;;-0.31;92.77
75656;BME280;64252;51.094;13.714;2023-03-07T04:28:36;98735.94;;;-0.43;92.42
75656;BME280;64252;51.094;13.714;2023-03-07T04:31:22;98736.00;;;-0.55;92.94
75656;BME280;64252;51.094;13.714;2023-03-07T04:33:49;98732.47;;;-0.24;91.86
75656;BME280;64252;51.094;13.714;2023-03-07T04:36:16;98726.06;;;-0.09;92.25
75656;BME280;64252;51.094;13.714;2023-03-07T04:38:42;98724.31;;;-0.17;92.59
75656;BME280;64252;51.094;13.714;2023-03-07T04:41:12;98718.22;;;-0.07;91.97
75656;BME280;64252;51.094;13.714;2023-03-07T04:43:39;98710.25;;;-0.09;91.77
75656;BME280;64252;51.094;13.714;2023-03-07T04:46:04;98705.78;;;-0.13;90.52
75656;BME280;64252;51.094;13.714;2023-03-07T04:48:30;98697.56;;;-0.10;91.66
75656;BME280;64252;51.094;13.714;2023-03-07T04:50:56;98701.84;;;-0.12;91.65
75656;BME280;64252;51.094;13.714;2023-03-07T04:53:21;98700.38;;;0.10;89.47
75656;BME280;64252;51.094;13.714;2023-03-07T04:55:47;98691.88;;;0.18;87.92
75656;BME280;64252;51.094;13.714;2023-03-07T04:58:13;98687.28;;;0.26;87.30
75656;BME280;64252;51.094;13.714;2023-03-07T05:00:41;98684.22;;;0.31;87.80
75656;BME280;64252;51.094;13.714;2023-03-07T05:03:08;98677.13;;;0.33;88.75
75656;BME280;64252;51.094;13.714;2023-03-07T05:05:34;98679.31;;;0.43;87.03
75656;BME280;64252;51.094;13.714;2023-03-07T05:08:00;98669.91;;;0.48;87.41
75656;BME280;64252;51.094;13.714;2023-03-07T05:10:26;98676.84;;;0.58;85.92
75656;BME280;64252;51.094;13.714;2023-03-07T05:12:53;98676.50;;;0.59;87.42
75656;BME280;64252;51.094;13.714;2023-03-07T05:15:19;98682.19;;;0.66;87.87
75656;BME280;64252;51.094;13.714;2023-03-07T05:17:44;98680.31;;;0.70;87.45
75656;BME280;64252;51.094;13.714;2023-03-07T05:20:10;98669.38;;;0.81;85.18
75656;BME280;64252;51.094;13.714;2023-03-07T05:22:37;98669.16;;;0.89;87.00
75656;BME280;64252;51.094;13.714;2023-03-07T05:25:04;98675.97;;;0.92;85.46
75656;BME280;64252;51.094;13.714;2023-03-07T05:27:30;98661.72;;;0.94;84.63
75656;BME280;64252;51.094;13.714;2023-03-07T05:29:56;98665.06;;;1.03;84.88
75656;BME280;64252;51.094;13.714;2023-03-07T05:32:22;98657.91;;;1.02;84.91
75656;BME280;64252;51.094;13.714;2023-03-07T05:34:48;98662.72;;;1.05;84.42
75656;BME280;64252;51.094;13.714;2023-03-07T05:37:16;98657.97;;;1.05;83.10
75656;BME280;64252;51.094;13.714;2023-03-07T05:39:42;98658.78;;;1.06;84.23
75656;BME280;64252;51.094;13.714;2023-03-07T05:42:08;98657.31;;;1.12;85.33
75656;BME280;64252;51.094;13.714;2023-03-07T05:44:37;98651.69;;;1.08;85.49
75656;BME280;64252;51.094;13.714;2023-03-07T05:47:04;98649.78;;;1.12;85.70
75656;BME280;64252;51.094;13.714;2023-03-07T05:49:30;98649.38;;;1.14;85.44
75656;BME280;64252;51.094;13.714;2023-03-07T05:51:57;98652.59;;;1.16;84.36
75656;BME280;64252;51.094;13.714;2023-03-07T05:54:22;98646.75;;;1.21;83.55
75656;BME280;64252;51.094;13.714;2023-03-07T05:56:48;98642.06;;;1.25;85.11
75656;BME280;64252;51.094;13.714;2023-03-07T05:59:24;98640.44;;;1.24;84.59
75656;BME280;64252;51.094;13.714;2023-03-07T06:01:51;98643.28;;;1.27;83.48
75656;BME280;64252;51.094;13.714;2023-03-07T06:04:17;98644.22;;;1.35;82.88
75656;BME280;64252;51.094;13.714;2023-03-07T06:06:42;98647.97;;;1.46;82.57
75656;BME280;64252;51.094;13.714;2023-03-07T06:09:09;98650.88;;;1.53;81.01
75656;BME280;64252;51.094;13.714;2023-03-07T06:11:35;98651.75;;;1.57;81.79
75656;BME280;64252;51.094;13.714;2023-03-07T06:14:02;98650.81;;;1.72;80.65
75656;BME280;64252;51.094;13.714;2023-03-07T06:16:28;98642.50;;;1.76;79.90
75656;BME280;64252;51.094;13.714;2023-03-07T06:18:54;98647.31;;;1.79;80.85
75656;BME280;64252;51.094;13.714;2023-03-07T06:21:20;98649.00;;;1.84;81.24
75656;BME280;64252;51.094;13.714;2023-03-07T06:23:45;98649.78;;;1.84;80.68
75656;BME280;64252;51.094;13.714;2023-03-07T06:26:15;98648.31;;;1.90;79.94
75656;BME280;64252;51.094;13.714;2023-03-07T06:28:44;98644.44;;;1.98;79.92
75656;BME280;64252;51.094;13.714;2023-03-07T06:31:14;98653.41;;;2.11;78.68
75656;BME280;64252;51.094;13.714;2023-03-07T06:33:41;98655.09;;;2.19;78.55
75656;BME280;64252;51.094;13.714;2023-03-07T06:36:08;98656.72;;;2.20;79.44
75656;BME280;64252;51.094;13.714;2023-03-07T06:38:35;98652.00;;;2.24;79.32
75656;BME280;64252;51.094;13.714;2023-03-07T06:41:00;98657.56;;;2.24;80.71
75656;BME280;64252;51.094;13.714;2023-03-07T06:43:26;98654.00;;;2.27;79.91
75656;BME280;64252;51.094;13.714;2023-03-07T06:45:53;98654.78;;;2.24;80.69
75656;BME280;64252;51.094;13.714;2023-03-07T06:48:21;98652.00;;;2.24;80.84
75656;BME280;64252;51.094;13.714;2023-03-07T06:50:47;98650.84;;;2.29;80.31
75656;BME280;64252;51.094;13.714;2023-03-07T06:53:13;98655.34;;;2.37;80.79
75656;BME280;64252;51.094;13.714;2023-03-07T06:55:39;98657.75;;;2.38;80.82
75656;BME280;64252;51.094;13.714;2023-03-07T06:58:06;98650.63;;;2.41;80.88
75656;BME280;64252;51.094;13.714;2023-03-07T07:00:32;98646.69;;;2.45;81.12
75656;BME280;64252;51.094;13.714;2023-03-07T07:02:58;98653.91;;;2.50;81.20
75656;BME280;64252;51.094;13.714;2023-03-07T07:05:24;98651.59;;;2.55;81.52
75656;BME280;64252;51.094;13.714;2023-03-07T07:07:49;98641.31;;;2.59;81.29
75656;BME280;64252;51.094;13.714;2023-03-07T07:10:15;98642.97;;;2.64;81.08
75656;BME280;64252;51.094;13.714;2023-03-07T07:12:41;98643.03;;;2.68;81.27
75656;BME280;64252;51.094;13.714;2023-03-07T07:15:08;98644.72;;;2.76;80.76
75656;BME280;64252;51.094;13.714;2023-03-07T07:17:34;98645.56;;;2.80;80.29
75656;BME280;64252;51.094;13.714;2023-03-07T07:20:03;98652.41;;;2.86;79.90
75656;BME280;64252;51.094;13.714;2023-03-07T07:22:30;98642.94;;;2.94;80.08
75656;BME280;64252;51.094;13.714;2023-03-07T07:24:56;98646.22;;;3.03;79.60
75656;BME280;64252;51.094;13.714;2023-03-07T07:27:22;98652.22;;;3.05;81.46
75656;BME280;64252;51.094;13.714;2023-03-07T07:29:48;98648.75;;;3.15;78.21
75656;BME280;64252;51.094;13.714;2023-03-07T07:32:13;98634.16;;;3.29;77.85
75656;BME280;64252;51.094;13.714;2023-03-07T07:34:39;98651.31;;;3.34;78.05
75656;BME280;64252;51.094;13.714;2023-03-07T07:37:05;98653.34;;;3.37;77.26
75656;BME280;64252;51.094;13.714;2023-03-07T07:39:31;98645.38;;;3.39;77.01
75656;BME280;64252;51.094;13.714;2023-03-07T07:41:57;98640.16;;;3.34;77.48
75656;BME280;64252;51.094;13.714;2023-03-07T07:44:28;98639.03;;;3.39;77.29
75656;BME280;64252;51.094;13.714;2023-03-07T07:46:57;98651.81;;;3.43;77.67
75656;BME280;64252;51.094;13.714;2023-03-07T07:49:23;98642.69;;;3.46;77.05
75656;BME280;64252;51.094;13.714;2023-03-07T07:51:49;98646.31;;;3.50;78.21
75656;BME280;64252;51.094;13.714;2023-03-07T07:54:14;98636.00;;;3.58;78.52
75656;BME280;64252;51.094;13.714;2023-03-07T07:56:40;98643.75;;;3.79;78.76
75656;BME280;64252;51.094;13.714;2023-03-07T07:59:06;98647.38;;;3.83;78.52
75656;BME280;64252;51.094;13.714;2023-03-07T08:01:31;98648.19;;;3.87;79.27
75656;BME280;64252;51.094;13.714;2023-03-07T08:03:57;98640.28;;;3.96;79.01
75656;BME280;64252;51.094;13.714;2023-03-07T08:06:25;98642.69;;;3.94;78.40
75656;BME280;64252;51.094;13.714;2023-03-07T08:08:51;98639.19;;;4.11;78.56
75656;BME280;64252;51.094;13.714;2023-03-07T08:11:18;98641.16;;;4.07;78.29
75656;BME280;64252;51.094;13.714;2023-03-07T08:13:44;98635.75;;;4.28;77.90
75656;BME280;64252;51.094;13.714;2023-03-07T08:16:15;98642.16;;;4.32;78.02
75656;BME280;64252;51.094;13.714;2023-03-07T08:18:42;98630.16;;;4.32;77.93
75656;BME280;64252;51.094;13.714;2023-03-07T08:21:08;98622.25;;;4.48;77.12
75656;BME280;64252;51.094;13.714;2023-03-07T08:23:35;98619.09;;;4.53;76.87
75656;BME280;64252;51.094;13.714;2023-03-07T08:26:05;98624.72;;;4.64;76.94
75656;BME280;64252;51.094;13.714;2023-03-07T08:28:31;98617.16;;;4.64;76.50
75656;BME280;64252;51.094;13.714;2023-03-07T08:30:57;98623.13;;;4.63;75.91
75656;BME280;64252;51.094;13.714;2023-03-07T08:33:23;98614.41;;;4.75;75.82
75656;BME280;64252;51.094;13.714;2023-03-07T08:35:48;98607.22;;;4.77;74.32
75656;BME280;64252;51.094;13.714;2023-03-07T08:38:14;98618.88;;;5.01;74.72
75656;BME280;64252;51.094;13.714;2023-03-07T08:40:40;98618.53;;;5.20;74.30
75656;BME280;64252;51.094;13.714;2023-03-07T08:43:06;98618.53;;;5.23;74.12
75656;BME280;64252;51.094;13.714;2023-03-07T08:45:31;98614.13;;;5.12;72.73
75656;BME280;64252;51.094;13.714;2023-03-07T08:48:00;98609.28;;;5.05;73.55
75656;BME280;64252;51.094;13.714;2023-03-07T08:50:26;98611.66;;;5.00;72.63
75656;BME280;64252;51.094;13.714;2023-03-07T08:52:53;98618.44;;;4.88;73.24
75656;BME280;64252;51.094;13.714;2023-03-07T08:55:19;98606.44;;;4.84;72.47
75656;BME280;64252;51.094;13.714;2023-03-07T08:57:45;98612.84;;;4.88;73.78
75656;BME280;64252;51.094;13.714;2023-03-07T09:00:12;98624.84;;;4.92;73.02
75656;BME280;64252;51.094;13.714;2023-03-07T09:02:38;98626.44;;;4.97;72.30
75656;BME280;64252;51.094;13.714;2023-03-07T09:05:04;98616.84;;;4.87;72.77
75656;BME280;64252;51.094;13.714;2023-03-07T09:07:30;98622.47;;;4.94;73.05
75656;BME280;64252;51.094;13.714;2023-03-07T09:09:55;98624.03;;;4.88;72.62
75656;BME280;64252;51.094;13.714;2023-03-07T09:12:21;98616.81;;;4.80;73.52
75656;BME280;64252;51.094;13.714;2023-03-07T09:14:47;98611.19;;;4.73;73.64
75656;BME280;64252;51.094;13.714;2023-03-07T09:17:12;98619.16;;;4.67;71.99
75656;BME280;64252;51.094;13.714;2023-03-07T09:19:38;98615.16;;;4.65;72.73
75656;BME280;64252;51.094;13.714;2023-03-07T09:22:04;98619.56;;;4.69;72.72
75656;BME280;64252;51.094;13.714;2023-03-07T09:24:30;98605.22;;;4.78;73.64
75656;BME280;64252;51.094;13.714;2023-03-07T09:26:56;98609.63;;;4.79;72.84
75656;BME280;64252;51.094;13.714;2023-03-07T09:29:22;98606.03;;;4.75;72.63
75656;BME280;64252;51.094;13.714;2023-03-07T09:31:47;98607.63;;;4.83;73.17
75656;BME280;64252;51.094;13.714;2023-03-07T09:34:13;98607.66;;;4.90;72.35
75656;BME280;64252;51.094;13.714;2023-03-07T09:36:38;98596.88;;;4.99;72.34
75656;BME280;64252;51.094;13.714;2023-03-07T09:39:04;98590.91;;;5.04;72.43
75656;BME280;64252;51.094;13.714;2023-03-07T09:41:58;98584.56;;;5.18;72.17
75656;BME280;64252;51.094;13.714;2023-03-07T09:47:51;98580.56;;;5.22;71.94
75656;BME280;64252;51.094;13.714;2023-03-07T09:51:29;98582.56;;;5.22;71.34
75656;BME280;64252;51.094;13.714;2023-03-07T09:53:35;98572.97;;;5.26;72.08
75656;BME280;64252;51.094;13.714;2023-03-07T09:56:05;98561.78;;;5.34;71.68
75656;BME280;64252;51.094;13.714;2023-03-07T09:58:37;98572.97;;;5.34;71.25
75656;BME280;64252;51.094;13.714;2023-03-07T10:01:08;98576.16;;;5.46;72.52
75656;BME280;64252;51.094;13.714;2023-03-07T10:03:59;98573.78;;;5.41;70.36
75656;BME280;64252;51.094;13.714;2023-03-07T10:06:42;98555.38;;;5.47;71.01
75656;BME280;64252;51.094;13.714;2023-03-07T10:09:16;98559.78;;;5.73;70.66
75656;BME280;64252;51.094;13.714;2023-03-07T10:12:13;98558.94;;;5.80;69.77
75656;BME280;64252;51.094;13.714;2023-03-07T10:18:25;98553.75;;;5.85;69.30
75656;BME280;64252;51.094;13.714;2023-03-07T10:26:36;98560.16;;;6.10;69.13
75656;BME280;64252;51.094;13.714;2023-03-07T10:29:21;98562.56;;;5.80;69.83
75656;BME280;64252;51.094;13.714;2023-03-07T10:31:53;98563.75;;;5.93;70.11
75656;BME280;64252;51.094;13.714;2023-03-07T10:34:25;98547.75;;;6.04;69.55
75656;BME280;64252;51.094;13.714;2023-03-07T10:36:55;98548.16;;;6.06;69.33
75656;BME280;64252;51.094;13.714;2023-03-07T10:41:51;98536.97;;;5.89;69.39
75656;BME280;64252;51.094;13.714;2023-03-07T10:44:19;98540.97;;;5.73;69.14
75656;BME280;64252;51.094;13.714;2023-03-07T10:46:53;98540.16;;;5.80;69.10
75656;BME280;64252;51.094;13.714;2023-03-07T10:49:31;98536.94;;;5.85;68.73
75656;BME280;64252;51.094;13.714;2023-03-07T10:55:35;98530.56;;;6.02;68.59
75656;BME280;64252;51.094;13.714;2023-03-07T10:58:25;98513.34;;;5.93;67.71
75656;BME280;64252;51.094;13.714;2023-03-07T11:06:34;98502.44;;;6.27;66.13
75656;BME280;64252;51.094;13.714;2023-03-07T11:11:57;98492.72;;;6.53;66.85
75656;BME280;64252;51.094;13.714;2023-03-07T11:14:27;98491.53;;;6.47;65.50
75656;BME280;64252;51.094;13.714;2023-03-07T11:16:58;98481.53;;;6.46;65.12
75656;BME280;64252;51.094;13.714;2023-03-07T11:19:34;98476.63;;;6.68;64.74
75656;BME280;64252;51.094;13.714;2023-03-07T11:22:03;98475.56;;;7.02;63.81
75656;BME280;64252;51.094;13.714;2023-03-07T11:24:39;98481.13;;;7.10;63.13
75656;BME280;64252;51.094;13.714;2023-03-07T11:27:20;98479.22;;;7.44;63.04
75656;BME280;64252;51.094;13.714;2023-03-07T11:30:16;98464.66;;;7.60;62.68
75656;BME280;64252;51.094;13.714;2023-03-07T11:32:52;98458.03;;;7.80;61.05
75656;BME280;64252;51.094;13.714;2023-03-07T11:35:27;98454.75;;;7.85;61.03
75656;BME280;64252;51.094;13.714;2023-03-07T11:38:18;98451.97;;;7.82;61.65
75656;BME280;64252;51.094;13.714;2023-03-07T11:43:38;98455.00;;;7.16;62.58
75656;BME280;64252;51.094;13.714;2023-03-07T11:46:19;98456.88;;;7.30;63.64
75656;BME280;64252;51.094;13.714;2023-03-07T12:09:12;98433.97;;;6.90;62.81
75656;BME280;64252;51.094;13.714;2023-03-07T12:15:03;98432.38;;;6.89;62.98
75656;BME280;64252;51.094;13.714;2023-03-07T12:25:45;98405.78;;;7.08;62.98
75656;BME280;64252;51.094;13.714;2023-03-07T12:28:20;98406.78;;;7.28;61.60
75656;BME280;64252;51.094;13.714;2023-03-07T12:34:10;98402.19;;;7.45;61.00
75656;BME280;64252;51.094;13.714;2023-03-07T12:36:16;98405.34;;;7.50;60.36
75656;BME280;64252;51.094;13.714;2023-03-07T12:39:15;98391.72;;;7.49;60.52
75656;BME280;64252;51.094;13.714;2023-03-07T12:47:24;98396.84;;;7.95;58.88
75656;BME280;64252;51.094;13.714;2023-03-07T12:49:55;98392.66;;;8.07;58.80
75656;BME280;64252;51.094;13.714;2023-03-07T12:52:34;98383.72;;;8.46;57.19
75656;BME280;64252;51.094;13.714;2023-03-07T12:55:26;98400.34;;;8.63;56.58
75656;BME280;64252;51.094;13.714;2023-03-07T12:58:15;98383.78;;;8.69;56.12
75656;BME280;64252;51.094;13.714;2023-03-07T13:01:02;98377.03;;;8.36;56.52
75656;BME280;64252;51.094;13.714;2023-03-07T13:05:56;98364.59;;;9.10;55.88
75656;BME280;64252;51.094;13.714;2023-03-07T13:08:22;98373.03;;;9.34;54.82
75656;BME280;64252;51.094;13.714;2023-03-07T13:10:48;98369.84;;;9.75;54.59
75656;BME280;64252;51.094;13.714;2023-03-07T13:16:05;98384.13;;;8.98;55.80
75656;BME280;64252;51.094;13.714;2023-03-07T13:18:31;98370.63;;;8.62;56.02
75656;BME280;64252;51.094;13.714;2023-03-07T13:21:09;98378.00;;;8.53;56.80
75656;BME280;64252;51.094;13.714;2023-03-07T13:23:35;98378.31;;;8.58;57.26
75656;BME280;64252;51.094;13.714;2023-03-07T13:26:05;98379.84;;;8.36;57.52
75656;BME280;64252;51.094;13.714;2023-03-07T13:28:40;98368.03;;;8.18;57.82
75656;BME280;64252;51.094;13.714;2023-03-07T13:33:39;98359.03;;;8.30;56.92
75656;BME280;64252;51.094;13.714;2023-03-07T13:36:34;98366.66;;;8.33;57.46
75656;BME280;64252;51.094;13.714;2023-03-07T13:39:00;98364.69;;;8.57;57.20
75656;BME280;64252;51.094;13.714;2023-03-07T13:41:47;98365.00;;;8.86;57.71
75656;BME280;64252;51.094;13.714;2023-03-07T13:44:39;98352.19;;;8.85;56.31
75656;BME280;64252;51.094;13.714;2023-03-07T13:47:42;98351.63;;;8.93;56.54
75656;BME280;64252;51.094;13.714;2023-03-07T13:53:00;98344.72;;;8.48;56.10
75656;BME280;64252;51.094;13.714;2023-03-07T13:55:29;98353.84;;;8.25;57.58
75656;BME280;64252;51.094;13.714;2023-03-07T13:57:59;98355.25;;;8.13;58.09
75656;BME280;64252;51.094;13.714;2023-03-07T14:00:32;98352.97;;;8.01;58.20
75656;BME280;64252;51.094;13.714;2023-03-07T14:02:59;98352.75;;;7.88;58.33
75656;BME280;64252;51.094;13.714;2023-03-07T14:05:25;98350.88;;;7.78;58.81
75656;BME280;64252;51.094;13.714;2023-03-07T14:07:51;98361.06;;;7.65;58.56
75656;BME280;64252;51.094;13.714;2023-03-07T14:10:23;98355.97;;;7.87;59.88
75656;BME280;64252;51.094;13.714;2023-03-07T14:21:09;98359.84;;;7.66;59.42
75656;BME280;64252;51.094;13.714;2023-03-07T14:26:27;98354.09;;;7.43;60.60
75656;BME280;64252;51.094;13.714;2023-03-07T14:28:59;98349.16;;;7.54;60.41
75656;BME280;64252;51.094;13.714;2023-03-07T14:31:30;98350.28;;;7.60;60.77
75656;BME280;64252;51.094;13.714;2023-03-07T14:39:21;98362.13;;;7.41;59.98
75656;BME280;64252;51.094;13.714;2023-03-07T14:42:51;98358.97;;;7.39;60.82
75656;BME280;64252;51.094;13.714;2023-03-07T14:44:54;98356.56;;;7.37;61.45
75656;BME280;64252;51.094;13.714;2023-03-07T14:47:36;98357.31;;;7.41;61.96
75656;BME280;64252;51.094;13.714;2023-03-07T14:52:33;98352.69;;;7.24;61.86